Airfield :
LOGIN :

Register | Disclaimer

   EN    FR    IT 

 










Legend :    VFR   Marginal VFR   IFR   Intensive IFR   Very Intensive IFR
Visi :
Ceiling :
>= 8 km
>= 3000ft
5 to 8 km
1000 to 3000 ft
1500m to 5 km
500 to 1000 ft
800 to 1500m
200 to 500 ft
< 800m
< 200 ft
Symbols :   Thunderstorms  Fog  Heavy snow  Heavy precipitations  Wind > 20 kt
SIGMETs :     Misc.  Thunderstorms  Icing  Turbulence  Mountain Waves  Volcanic Ashes






- Airport Elevation : 194 ft
- IATA code : LME


LFRM - Le Mans

CURRENT METAR :
  • 130500Z AUTO 28015G29KT 240V310 CAVOK 08/03 Q0985

EXPIRED METARs :
  • 130430Z AUTO 28017G27KT 240V320 9999 FEW029 BKN034 BKN040 08/04 Q0984
  • 130400Z AUTO 28010KT 240V340 9999 FEW017 BKN039 08/05 Q0983
  • 130330Z AUTO 29010KT 250V320 9999 FEW011/// BKN027/// ///TCU 09/06 Q0983
  • 130300Z AUTO 28018G31KT 240V330 6000 RA BKN025/// OVC031/// ///TCU 09/06 Q0982
  • 130230Z AUTO 26011G23KT 9999 FEW033 SCT062 BKN098 09/06 Q0981

TAF AMD TAF LFRM
Valid from the 12 at 18:00 until the 13 at 12:00 UTC


121842Z 1218/1312 27010KT 9999 SCT040
TEMPO 1222/1312 25015G25KT 3000 SHRA BKN012 BKN020CB
PROB40
TEMPO 1301/1312 26020G35KT



MET'MAP, your aeronautical weather chart ! - Copyright ORBIFLY December 2007 - Disclaimer

ORBIFLY MET'MAP TEAM :

Programming & Development : Alexandra Zaïnal
Concept & original design : Baudouin d'Aumeries
Assistance for programming : Marc-Olivier Méhu
Technical & hardware support : Manuel Goepfert

Contact : metmap@orbifly.com




SOURCES & CREDITS :

   NOAA